Flight Track Log - Related Links

Times and Time Zones

All times are in EDT time to prevent confusion due to time zone crossing. See the TCF3494 flight status page for this flight to view local times or setup timezone preferences in your user account.

Time Position Orientation Groundspeed Altitude Reporting Facility
EDT Latitude Longitude Course Direction KTS MPH feet Rate Location/Type
Mon 10:02:53 PM 42.0167 -87.8667 85° East 160 184 2,000  Level Chicago TRACON
Mon 10:03:53 PM 42.0167 -87.7833 90° East 232 267 3,900 2,421 Climbing Chicago TRACON
Mon 10:04:47 PM 42.0000 -87.7000 105° East 277 319 6,600 2,750 Climbing Chicago TRACON
Mon 10:05:00 PM 41.9418 -87.2505 95° East  Level FlightAware Approximate
Mon 10:05:53 PM 41.9975 -87.5928 92° East 280 322 9,400  Level Chicago Center
Mon 10:06:00 PM 41.9333 -87.0882 90° East  Level FlightAware Approximate
Mon 10:06:55 PM 41.9864 -87.4794 97° East 301 346 11,800  Level Chicago Center
Mon 10:07:00 PM 41.9333 -86.9254 90° East  Level FlightAware Approximate
Mon 10:07:56 PM 41.9736 -87.3483 97° East 348 400 13,600  Level Chicago Center
Mon 10:08:00 PM 41.9347 -86.7626 85° East  Level FlightAware Approximate
Mon 10:08:58 PM 41.9594 -87.2114 98° East 369 425 16,000  Level Chicago Center
Mon 10:09:59 PM 41.9458 -87.0689 97° East 383 441 17,900 1,967 Climbing Chicago Center
Mon 10:11:00 PM 41.9467 -86.9208 90° East 399 459 20,000 2,049 Climbing Chicago Center
Mon 10:12:02 PM 41.9489 -86.7394 89° East 408 470 22,100 1,902 Climbing Chicago Center
Mon 10:13:03 PM 41.9511 -86.5925 89° East 422 486 23,900 1,659 Climbing Chicago Center
Mon 10:14:05 PM 41.9531 -86.4331 89° East 427 491 25,500 1,415 Climbing Chicago Center
Mon 10:15:06 PM 41.9553 -86.2681 89° East 439 505 26,800 1,220 Climbing Chicago Center
Mon 10:16:08 PM 41.9458 -86.1003 94° East 451 519 28,000 1,220 Climbing Chicago Center
Mon 10:17:09 PM 41.9289 -85.9289 98° East 460 529 29,300 1,122 Climbing Chicago Center
Mon 10:18:11 PM 41.9122 -85.7558 97° East 465 535 30,300 927 Climbing Chicago Center
Mon 10:19:12 PM 41.8925 -85.5433 97° East 475 547 31,200 787 Climbing Chicago Center
Mon 10:20:13 PM 41.8758 -85.3603 97° East 485 558 31,900 732 Climbing Chicago Center
Mon 10:21:15 PM 41.8572 -85.1753 98° East 492 566 32,700 537 Climbing Chicago Center
Mon 10:22:16 PM 41.8378 -84.9931 98° East 492 566 33,000 148 Climbing Chicago Center
Mon 10:23:17 PM 41.8175 -84.8028 98° East 515 593 33,000  Level Chicago Center
Mon 10:24:19 PM 41.7983 -84.6167 98° East 507 583 33,000  Level Chicago Center
Mon 10:25:20 PM 41.7786 -84.4272 98° East 511 588 33,000  Level Chicago Center
Mon 10:26:21 PM 41.7750 -84.2225 91° East 505 581 33,000  Level Cleveland Center
Mon 10:27:21 PM 41.7725 -84.0303 91° East 505 581 33,000  Level Cleveland Center
Mon 10:28:21 PM 41.7697 -83.8408 91° East 505 581 33,000  Level Cleveland Center
Mon 10:29:21 PM 41.7689 -83.6486 90° East 512 589 33,000  Level Cleveland Center
Mon 10:30:21 PM 41.7572 -83.4558 95° East 519 597 33,000  Level Cleveland Center
Mon 10:31:21 PM 41.7408 -83.2658 97° East 519 597 33,000  Level Cleveland Center
Mon 10:32:21 PM 41.7222 -83.0758 97° East 519 597 33,000  Level Cleveland Center
Mon 10:33:21 PM 41.7014 -82.8803 98° East 524 603 33,000  Level Cleveland Center
Mon 10:34:21 PM 41.6822 -82.6878 98° East 524 603 33,000  Level Cleveland Center
Mon 10:35:21 PM 41.6625 -82.4983 98° East 524 603 33,000  Level Cleveland Center
Mon 10:36:21 PM 41.6444 -82.3225 98° East 524 603 33,000  Level Cleveland Center
Mon 10:37:21 PM 41.6225 -82.1108 98° East 519 597 33,000  Level Cleveland Center
Mon 10:38:21 PM 41.6019 -81.9189 98° East 524 603 33,000  Level Cleveland Center
Mon 10:39:21 PM 41.5833 -81.7242 97° East 524 603 33,000  Level Cleveland Center
Mon 10:40:21 PM 41.5600 -81.5322 99° East 524 603 33,000  Level Cleveland Center
Mon 10:41:21 PM 41.5383 -81.3517 99° East 508 585 33,000  Level Cleveland Center
Mon 10:42:21 PM 41.5186 -81.1878 99° East 503 579 33,000  Level Cleveland Center
Mon 10:43:21 PM 41.5028 -81.0044 97° East 503 579 33,000  Level Cleveland Center
Mon 10:44:21 PM 41.4867 -80.8214 97° East 503 579 33,000  Level Cleveland Center
Mon 10:45:21 PM 41.4700 -80.6331 97° East 503 579 33,000  Level Cleveland Center
Mon 10:46:21 PM 41.4533 -80.4528 97° East 498 573 33,000  Level Cleveland Center
Mon 10:47:21 PM 41.4364 -80.2675 97° East 503 579 33,000  Level Cleveland Center
Mon 10:48:21 PM 41.4189 -80.0875 97° East 503 579 33,000  Level Cleveland Center
Mon 10:49:21 PM 41.3992 -79.8994 98° East 503 579 33,000  Level Cleveland Center
Mon 10:50:21 PM 41.3814 -79.7197 97° East 503 579 33,000  Level Cleveland Center
Mon 10:51:21 PM 41.3631 -79.5319 97° East 503 579 33,000  Level Cleveland Center
Mon 10:52:21 PM 41.3467 -79.3494 97° East 503 579 33,000  Level Cleveland Center
Mon 10:53:21 PM 41.3258 -79.1647 98° East 503 579 33,000  Level Cleveland Center
Mon 10:54:21 PM 41.3067 -78.9828 98° East 503 579 33,000  Level Cleveland Center
Mon 10:55:21 PM 41.2872 -78.7925 98° East 503 579 33,000  Level Cleveland Center
Mon 10:56:21 PM 41.2675 -78.6078 98° East 503 579 33,000 -50 Level Cleveland Center
Mon 10:57:21 PM 41.2475 -78.4233 98° East 503 579 32,900 -466 Descending Cleveland Center
Mon 10:58:04 PM 41.2300 -78.2756 99° East 500 575 32,200 -971 Descending New York Center
Mon 10:59:06 PM 41.2094 -78.1019 99° East 506 582 31,200 -605 Descending New York Center
Mon 11:00:03 PM 41.1856 -77.9147 100° East 511 588 31,000 -102 Descending New York Center
Mon 11:01:04 PM 41.1633 -77.7275 99° East 511 588 31,000  Level New York Center
Mon 11:02:04 PM 41.1389 -77.5403 100° East 511 588 31,000 -149 Level New York Center
Mon 11:03:05 PM 41.1136 -77.3561 100° East 511 588 30,700 -885 Descending New York Center
Mon 11:04:06 PM 41.0889 -77.1636 100° East 511 588 29,200 -1,765 Descending New York Center
Mon 11:05:04 PM 41.0636 -76.9714 100° East 516 594 27,200 -2,017 Descending New York Center
Mon 11:06:05 PM 41.0381 -76.7819 100° East 523 602 25,200 -2,017 Descending New York Center
Mon 11:07:03 PM 41.0056 -76.5975 103° East 523 602 23,200 -2,017 Descending New York Center
Mon 11:08:04 PM 40.9642 -76.4208 107° East 511 588 21,200 -1,869 Descending New York Center
Mon 11:09:05 PM 40.9219 -76.2553 109° East 491 565 19,400 -2,066 Descending New York Center
Mon 11:10:06 PM 40.8817 -76.0847 107° East 459 528 17,000 -1,884 Descending New York Center
Mon 11:11:06 PM 40.8539 -75.9617 107° East 423 487 15,600 -1,169 Descending New York Center
Mon 11:12:04 PM 40.8217 -75.8358 109° East 374 430 14,700 -857 Descending New York Center
Mon 11:13:05 PM 40.8081 -75.7142 98° East 342 394 13,900 -787 Descending New York Center
Mon 11:14:06 PM 40.8303 -75.5814 77° East 329 379 13,100 -403 Descending New York Center
Mon 11:15:04 PM 40.7947 -75.4803 115° Southeast 295 339 13,100 -51 Level New York Center
Mon 11:16:04 PM 40.7225 -75.4094 143° Southeast 307 353 13,000 -836 Descending New York Center
Mon 11:17:06 PM 40.6914 -75.3033 111° Southeast 306 352 11,400 -1,426 Descending New York Center
Mon 11:18:06 PM 40.6725 -75.1928 103° East 300 345 10,100 -655 Descending New York Center
Mon 11:19:05 PM 40.6303 -75.0942 119° Southeast 300 345 10,100 -51 Level New York Center
Mon 11:20:04 PM 40.5767 -75.0197 133° Southeast 305 351 10,000 -50 Descending New York Center
Mon 11:21:05 PM 40.5372 -74.9028 114° Southeast 310 357 10,000 57 Level New York Center
Mon 11:21:49 PM 40.5167 -74.8167 107° East 321 369 10,100 55 Climbing New York TRACON
Mon 11:22:55 PM 40.4833 -74.7167 114° Southeast 281 323 10,100  Level New York TRACON
Mon 11:23:55 PM 40.4500 -74.6167 114° Southeast 267 307 10,100  Level New York TRACON
Mon 11:24:55 PM 40.4333 -74.5333 105° East 268 308 10,100 -300 Level New York TRACON
Mon 11:25:55 PM 40.4500 -74.4333 78° East 266 306 9,500 -950 Descending New York TRACON
Mon 11:26:55 PM 40.4667 -74.3333 78° East 261 300 8,200 -1,300 Descending New York TRACON
Mon 11:27:55 PM 40.5000 -74.2667 57° Northeast 257 296 6,900 -1,150 Descending New York TRACON
Mon 11:28:55 PM 40.5500 -74.2000 45° Northeast 245 282 5,900 -1,000 Descending New York TRACON
Mon 11:29:55 PM 40.5833 -74.1333 57° Northeast 200 230 4,900 -1,100 Descending New York TRACON
Mon 11:30:55 PM 40.6167 -74.0833 49° Northeast 193 222 3,700 -597 Descending New York TRACON
Mon 11:33:06 PM 40.6847 -73.9758 50° Northeast 181 208 3,000 -367 Descending New York Center
Mon 11:33:55 PM 40.7167 -73.9333 45° Northeast 178 205 2,600 -490 Descending New York TRACON

Login

Don't have an account? Register now (free) for customized features, flight alerts, and more!